Flight Track Log - Related Links

Times and Time Zones

All times are in EDT time to prevent confusion due to time zone crossing. See the DAL1981 flight status page for this flight to view local times or setup timezone preferences in your user account.

Time Position Orientation Groundspeed Altitude Reporting Facility
EDT Latitude Longitude Course Direction KTS MPH feet Rate Location/Type
Sun 04:07:52 PM 38.6500 -121.5667 76° East 198 228 1,600  Level Northern Cal TRACON
Sun 04:08:52 PM 38.6000 -121.5000 134° Southeast 260 299 4,000 2,750 Climbing Northern Cal TRACON
Sun 04:09:52 PM 38.6000 -121.4167 90° East 272 313 7,100 2,850 Climbing Northern Cal TRACON
Sun 04:10:00 PM 38.5031 -121.2239 67° East  Level FlightAware Approximate
Sun 04:10:52 PM 38.6167 -121.3167 78° East 305 351 9,700  Level Northern Cal TRACON
Sun 04:11:00 PM 38.5420 -121.0567 76° East  Level FlightAware Approximate
Sun 04:11:52 PM 38.6167 -121.2000 90° East 328 377 11,000  Level Northern Cal TRACON
Sun 04:12:00 PM 38.5719 -120.8861 78° East  Level FlightAware Approximate
Sun 04:12:52 PM 38.6333 -121.0667 81° East 391 450 12,300  Level Northern Cal TRACON
Sun 04:13:00 PM 38.6003 -120.7150 76° East  Level FlightAware Approximate
Sun 04:14:16 PM 38.6525 -120.8925 82° East 401 461 14,700  Level Oakland Center
Sun 04:15:17 PM 38.6692 -120.7153 83° East 419 482 16,900 1,854 Climbing Oakland Center
Sun 04:16:19 PM 38.6842 -120.5617 83° East 434 499 18,500 1,597 Climbing Oakland Center
Sun 04:17:21 PM 38.6986 -120.4044 83° East 444 511 20,200 1,561 Climbing Oakland Center
Sun 04:18:22 PM 38.7175 -120.2414 82° East 461 531 21,700 1,463 Climbing Oakland Center
Sun 04:19:24 PM 38.7903 -120.0986 57° Northeast 479 551 23,200 1,366 Climbing Oakland Center
Sun 04:20:25 PM 38.8733 -119.9592 53° Northeast 489 563 24,500 1,512 Climbing Oakland Center
Sun 04:21:27 PM 38.9578 -119.8147 53° Northeast 496 571 26,300 1,610 Climbing Oakland Center
Sun 04:22:28 PM 39.0406 -119.6772 52° Northeast 487 560 27,800 1,366 Climbing Oakland Center
Sun 04:23:30 PM 39.1381 -119.5072 53° Northeast 489 563 29,100 1,355 Climbing Oakland Center
Sun 04:24:32 PM 39.2192 -119.3661 53° Northeast 490 564 30,600 927 Climbing Oakland Center
Sun 04:25:33 PM 39.2994 -119.2253 54° Northeast 486 559 31,000 195 Climbing Oakland Center
Sun 04:26:35 PM 39.3800 -119.0864 53° Northeast 482 555 31,000  Level Oakland Center
Sun 04:27:36 PM 39.4681 -118.9311 54° Northeast 489 563 31,000  Level Oakland Center
Sun 04:28:38 PM 39.5453 -118.7967 53° Northeast 489 563 31,000  Level Oakland Center
Sun 04:29:39 PM 39.6278 -118.6517 54° Northeast 489 563 31,000  Level Oakland Center
Sun 04:30:41 PM 39.7078 -118.5086 54° Northeast 487 560 31,000  Level Oakland Center
Sun 04:31:43 PM 39.7864 -118.3664 54° Northeast 483 556 31,000  Level Oakland Center
Sun 04:32:44 PM 39.8656 -118.2239 54° Northeast 484 557 31,000  Level Oakland Center
Sun 04:33:46 PM 39.9433 -118.0814 55° Northeast 482 555 31,000  Level Oakland Center
Sun 04:34:48 PM 40.0228 -117.9378 54° Northeast 486 559 31,000  Level Oakland Center
Sun 04:35:49 PM 40.1164 -117.7650 55° Northeast 487 560 31,000  Level Oakland Center
Sun 04:36:51 PM 40.1942 -117.6206 55° Northeast 485 558 31,000  Level Oakland Center
Sun 04:37:53 PM 40.2700 -117.4825 54° Northeast 487 560 31,000  Level Oakland Center
Sun 04:38:53 PM 40.3450 -117.3425 55° Northeast 487 560 31,000  Level Salt Lake Center
Sun 04:39:55 PM 40.4333 -117.1792 55° Northeast 488 562 31,000  Level Salt Lake Center
Sun 04:40:57 PM 40.5100 -117.0375 55° Northeast 491 565 31,000  Level Salt Lake Center
Sun 04:41:59 PM 40.5844 -116.8919 56° Northeast 490 564 31,000  Level Salt Lake Center
Sun 04:43:01 PM 40.6519 -116.7136 63° Northeast 483 556 31,000  Level Salt Lake Center
Sun 04:44:03 PM 40.7097 -116.5619 63° Northeast 483 556 31,000  Level Salt Lake Center
Sun 04:45:05 PM 40.7794 -116.3853 62° Northeast 485 558 31,000  Level Salt Lake Center
Sun 04:46:07 PM 40.8386 -116.2336 63° Northeast 485 558 31,000  Level Salt Lake Center
Sun 04:47:09 PM 40.9069 -116.0536 63° Northeast 488 562 31,000  Level Salt Lake Center
Sun 04:48:11 PM 40.9650 -115.8997 63° Northeast 488 562 31,000  Level Salt Lake Center
Sun 04:49:13 PM 41.0328 -115.7217 63° Northeast 486 559 31,000  Level Salt Lake Center
Sun 04:50:15 PM 41.0900 -115.5667 64° Northeast 487 560 31,000  Level Salt Lake Center
Sun 04:51:17 PM 41.1475 -115.4128 64° Northeast 486 559 31,000  Level Salt Lake Center
Sun 04:52:19 PM 41.2144 -115.2331 64° Northeast 487 560 31,000  Level Salt Lake Center
Sun 04:53:21 PM 41.2728 -115.0783 63° Northeast 488 562 31,000  Level Salt Lake Center
Sun 04:54:24 PM 41.3386 -114.8956 64° Northeast 491 565 31,000  Level Salt Lake Center
Sun 04:55:26 PM 41.3936 -114.7453 64° Northeast 491 565 31,000  Level Salt Lake Center
Sun 04:56:28 PM 41.4664 -114.5489 64° Northeast 493 567 31,000  Level Salt Lake Center
Sun 04:57:30 PM 41.5258 -114.3839 64° Northeast 494 568 31,000  Level Salt Lake Center
Sun 04:58:32 PM 41.5850 -114.2167 65° Northeast 497 572 31,000  Level Salt Lake Center
Sun 04:59:34 PM 41.6453 -114.0494 64° Northeast 499 574 31,000  Level Salt Lake Center
Sun 05:00:36 PM 41.7042 -113.8828 65° Northeast 498 573 31,000  Level Salt Lake Center
Sun 05:01:38 PM 41.7656 -113.7128 64° Northeast 504 580 31,000  Level Salt Lake Center
Sun 05:02:40 PM 41.8364 -113.5072 65° Northeast 506 582 31,000  Level Salt Lake Center
Sun 05:03:42 PM 41.8967 -113.3372 64° Northeast 504 580 31,000  Level Salt Lake Center
Sun 05:04:44 PM 41.9564 -113.1644 65° Northeast 508 585 31,000  Level Salt Lake Center
Sun 05:05:46 PM 42.0158 -112.9928 65° Northeast 508 585 31,000  Level Salt Lake Center
Sun 05:06:48 PM 42.0733 -112.8217 66° East 504 580 31,000  Level Salt Lake Center
Sun 05:07:50 PM 42.1328 -112.6494 65° Northeast 505 581 31,000  Level Salt Lake Center
Sun 05:08:52 PM 42.1914 -112.4761 65° Northeast 508 585 31,000  Level Salt Lake Center
Sun 05:09:54 PM 42.2594 -112.2672 66° East 507 583 31,000  Level Salt Lake Center
Sun 05:10:56 PM 42.3169 -112.0908 66° East 510 587 31,000  Level Salt Lake Center
Sun 05:11:58 PM 42.3739 -111.9158 66° East 508 585 31,000  Level Salt Lake Center
Sun 05:13:00 PM 42.4303 -111.7406 66° East 509 586 31,000  Level Salt Lake Center
Sun 05:14:02 PM 42.4867 -111.5633 67° East 511 588 31,000  Level Salt Lake Center
Sun 05:15:05 PM 42.5422 -111.3861 67° East 512 589 31,000  Level Salt Lake Center
Sun 05:16:07 PM 42.6108 -111.1717 66° East 516 594 31,000  Level Salt Lake Center
Sun 05:17:09 PM 42.6667 -110.9928 67° East 517 595 31,000  Level Salt Lake Center
Sun 05:18:11 PM 42.7194 -110.8264 67° East 519 597 31,000  Level Salt Lake Center
Sun 05:19:13 PM 42.7825 -110.6219 67° East 524 603 31,000  Level Salt Lake Center
Sun 05:20:15 PM 42.8403 -110.4292 68° East 515 593 31,000  Level Salt Lake Center
Sun 05:21:17 PM 42.8931 -110.2558 67° East 516 594 31,000  Level Salt Lake Center
Sun 05:22:19 PM 42.9478 -110.0758 67° East 519 597 31,000  Level Salt Lake Center
Sun 05:23:21 PM 43.0092 -109.8719 68° East 520 598 31,000  Level Salt Lake Center
Sun 05:24:23 PM 43.0589 -109.7039 68° East 522 601 31,000  Level Salt Lake Center
Sun 05:25:25 PM 43.1133 -109.5208 68° East 522 601 31,000  Level Salt Lake Center
Sun 05:26:27 PM 43.1775 -109.3000 68° East 521 600 31,000  Level Salt Lake Center
Sun 05:27:29 PM 43.2311 -109.1175 68° East 519 597 31,000  Level Salt Lake Center
Sun 05:28:31 PM 43.2839 -108.9339 68° East 519 597 31,000  Level Salt Lake Center
Sun 05:29:33 PM 43.3367 -108.7494 68° East 520 598 31,000  Level Salt Lake Center
Sun 05:30:35 PM 43.3894 -108.5644 69° East 523 602 31,000  Level Salt Lake Center
Sun 05:31:37 PM 43.4503 -108.3436 69° East 518 596 31,000  Level Salt Lake Center
Sun 05:32:39 PM 43.5039 -108.1592 68° East 521 600 31,000  Level Salt Lake Center
Sun 05:33:41 PM 43.5594 -107.9750 67° East 523 602 31,000  Level Salt Lake Center
Sun 05:34:43 PM 43.6139 -107.7903 68° East 524 603 31,000  Level Salt Lake Center
Sun 05:35:45 PM 43.6675 -107.6039 68° East 525 604 31,000  Level Salt Lake Center
Sun 05:36:47 PM 43.7331 -107.3811 68° East 525 604 31,000  Level Salt Lake Center
Sun 05:37:49 PM 43.7847 -107.1969 69° East 519 597 31,000  Level Salt Lake Center
Sun 05:38:51 PM 43.8353 -107.0083 70° East 524 603 31,000  Level Salt Lake Center
Sun 05:39:53 PM 43.8756 -106.8100 74° East 526 605 31,000  Level Salt Lake Center
Sun 05:40:52 PM 43.9117 -106.6181 75° East 527 606 31,000  Level Denver Center
Sun 05:41:54 PM 43.9344 -106.3936 82° East 528 608 31,000  Level Denver Center
Sun 05:42:56 PM 43.9519 -106.2008 83° East 527 606 31,000  Level Denver Center
Sun 05:43:58 PM 43.9742 -105.9761 82° East 526 605 31,000  Level Denver Center
Sun 05:45:00 PM 43.9922 -105.7839 82° East 524 603 31,000  Level Denver Center
Sun 05:46:02 PM 44.0097 -105.5911 83° East 525 604 31,000  Level Denver Center
Sun 05:47:04 PM 44.0303 -105.3647 83° East 526 605 31,000  Level Denver Center
Sun 05:48:06 PM 44.0458 -105.1714 84° East 526 605 31,000  Level Denver Center
Sun 05:49:08 PM 44.0653 -104.9461 83° East 525 604 31,000  Level Denver Center
Sun 05:50:10 PM 44.0814 -104.7508 83° East 528 608 31,000  Level Denver Center
Sun 05:51:12 PM 44.1003 -104.5239 83° East 528 608 31,000  Level Denver Center
Sun 05:52:27 PM 44.1192 -104.2981 83° East 526 605 31,000  Level Denver Center
Sun 05:53:29 PM 44.1364 -104.0717 84° East 526 605 31,000  Level Denver Center
Sun 05:54:31 PM 44.1514 -103.8758 84° East 529 609 31,000  Level Denver Center
Sun 05:55:33 PM 44.1681 -103.6492 84° East 527 606 31,000  Level Denver Center
Sun 05:57:17 PM 44.1928 -103.3144 84° East 527 606 31,000  Level Minneapolis Center
Sun 05:57:49 PM 44.2003 -103.1967 85° East 526 605 31,000  Level Denver Center
Sun 05:58:51 PM 44.2139 -102.9886 85° East 528 608 31,000  Level Denver Center
Sun 05:59:55 PM 44.2283 -102.7869 84° East 526 605 31,000  Level Denver Center
Sun 06:00:57 PM 44.2408 -102.5819 85° East 530 610 31,000  Level Denver Center
Sun 06:01:59 PM 44.2556 -102.3375 85° East 527 606 31,000  Level Denver Center
Sun 06:03:02 PM 44.2672 -102.1331 85° East 530 610 31,000  Level Denver Center
Sun 06:04:04 PM 44.2783 -101.9272 86° East 532 612 31,000  Level Denver Center
Sun 06:05:06 PM 44.2903 -101.7214 85° East 533 613 31,000  Level Denver Center
Sun 06:06:08 PM 44.2992 -101.5142 86° East 535 616 31,000  Level Denver Center
Sun 06:07:10 PM 44.3100 -101.3103 86° East 532 612 31,000  Level Denver Center
Sun 06:08:12 PM 44.3239 -101.0636 85° East 531 611 31,000  Level Denver Center
Sun 06:09:14 PM 44.3342 -100.8581 86° East 533 613 31,000  Level Denver Center
Sun 06:10:45 PM 44.3486 -100.5706 86° East 535 616 31,000  Level Minneapolis Center
Sun 06:11:47 PM 44.3594 -100.3233 86° East 535 616 31,000  Level Minneapolis Center
Sun 06:13:01 PM 44.3692 -100.1175 86° East 535 616 31,000  Level Minneapolis Center
Sun 06:14:04 PM 44.3789 -99.8700 87° East 535 616 31,000  Level Minneapolis Center
Sun 06:15:06 PM 44.3864 -99.6628 87° East 537 618 31,000  Level Minneapolis Center
Sun 06:16:08 PM 44.3950 -99.4600 87° East 531 611 31,000  Level Minneapolis Center
Sun 06:17:10 PM 44.4044 -99.2192 87° East 521 600 31,000  Level Minneapolis Center
Sun 06:18:12 PM 44.4106 -99.0172 88° East 522 601 31,000  Level Minneapolis Center
Sun 06:19:14 PM 44.4167 -98.8164 87° East 519 597 31,000  Level Minneapolis Center
Sun 06:20:16 PM 44.4208 -98.6150 88° East 520 598 31,000  Level Minneapolis Center
Sun 06:21:18 PM 44.4267 -98.4119 88° East 522 601 31,000  Level Minneapolis Center
Sun 06:22:20 PM 44.4375 -98.1889 86° East 518 596 31,000  Level Minneapolis Center
Sun 06:23:23 PM 44.4550 -97.9903 83° East 515 593 31,000  Level Minneapolis Center
Sun 06:24:25 PM 44.4714 -97.7942 83° East 510 587 31,000  Level Minneapolis Center
Sun 06:25:27 PM 44.4775 -97.5939 87° East 514 592 31,000  Level Minneapolis Center
Sun 06:26:41 PM 44.4778 -97.3139 90° East 515 593 31,000  Level Minneapolis Center
Sun 06:27:43 PM 44.4778 -97.1147 90° East 513 590 31,000  Level Minneapolis Center
Sun 06:28:45 PM 44.4742 -96.9167 91° East 510 587 31,000  Level Minneapolis Center
Sun 06:29:48 PM 44.4367 -96.7344 106° East 489 563 31,000  Level Minneapolis Center
Sun 06:30:50 PM 44.4003 -96.5497 105° East 492 566 31,000  Level Minneapolis Center
Sun 06:31:52 PM 44.3831 -96.3625 97° East 487 560 31,000  Level Minneapolis Center
Sun 06:32:54 PM 44.4397 -96.1975 64° Northeast 475 547 31,000  Level Minneapolis Center
Sun 06:33:56 PM 44.5464 -96.0503 45° Northeast 446 513 31,000 -339 Level Minneapolis Center
Sun 06:34:58 PM 44.6350 -95.9283 44° Northeast 446 513 30,300 -871 Descending Minneapolis Center
Sun 06:36:00 PM 44.7078 -95.7906 53° Northeast 445 512 29,200 -1,355 Descending Minneapolis Center
Sun 06:37:02 PM 44.7167 -95.6167 86° East 448 516 27,500 -1,742 Descending Minneapolis Center
Sun 06:38:04 PM 44.7075 -95.4469 94° East 438 504 25,600 -1,742 Descending Minneapolis Center
Sun 06:39:06 PM 44.6983 -95.2819 94° East 428 493 23,900 -1,728 Descending Minneapolis Center
Sun 06:40:09 PM 44.6872 -95.0936 95° East 408 470 22,000 -1,680 Descending Minneapolis Center
Sun 06:41:11 PM 44.6792 -94.9439 94° East 391 450 20,400 -2,081 Descending Minneapolis Center
Sun 06:42:13 PM 44.6694 -94.7967 95° East 382 440 17,700 -2,371 Descending Minneapolis Center
Sun 06:43:15 PM 44.6617 -94.6261 94° East 395 455 15,500 -1,984 Descending Minneapolis Center
Sun 06:44:17 PM 44.6747 -94.4764 83° East 387 445 13,600 -1,839 Descending Minneapolis Center
Sun 06:45:19 PM 44.6844 -94.3356 84° East 366 421 11,700 -1,258 Descending Minneapolis Center
Sun 06:46:21 PM 44.6908 -94.2033 86° East 339 390 11,000 -629 Descending Minneapolis Center
Sun 06:47:23 PM 44.7069 -94.0858 79° East 308 354 10,400 -1,113 Descending Minneapolis Center
Sun 06:48:25 PM 44.7344 -93.9728 71° East 305 351 8,700 -1,645 Descending Minneapolis Center
Sun 06:49:27 PM 44.7944 -93.8667 51° Northeast 288 331 7,000 -823 Descending Minneapolis Center
Sun 06:50:29 PM 44.8489 -93.7853 47° Northeast 285 328 7,000  Level Minneapolis Center
Sun 06:51:31 PM 44.9017 -93.7061 47° Northeast 276 318 7,000 -145 Level Minneapolis Center
Sun 06:52:33 PM 44.9428 -93.6431 47° Northeast 219 252 6,700 -816 Descending Minneapolis Center
Sun 06:53:36 PM 44.9442 -93.5556 89° East 220 253 5,300 -1,296 Descending Minneapolis Center
Sun 06:54:38 PM 44.9447 -93.4736 89° East 209 241 4,000 -919 Descending Minneapolis Center
Sun 06:55:40 PM 44.9447 -93.3961 90° East 195 224 3,400 -871 Descending Minneapolis Center
Sun 06:56:42 PM 44.9247 -93.3194 110° East 178 205 2,200 -968 Descending Minneapolis Center
Sun 06:57:44 PM 44.9028 -93.2683 121° Southeast 155 178 1,400 -774 Descending Minneapolis Center

Login

Don't have an account? Register now (free) for customized features, flight alerts, and more!